METAR AND TAF INFORMATION
METAR FOR GCRR
ADDS - METARS form results

(0438 UTC 26 February 2020)
Data provider http://aviationweather.gov/metar/data/
 
METAR text: GCRR 260430Z AUTO 02015KT CAVOK 17/13 Q1023
Conditions at: GCRR (ARRECIFE/LANZARO, ES) observed 0430 UTC 26 February 2020
Temperature: 17.0°C (63°F)
Dewpoint: 13.0°C (55°F) [RH = 77%]
Pressure (altimeter): 30.21 inches Hg (1023.0 mb)
Winds: from the NNE (20 degrees) at 17 MPH (15 knots; 7.7 m/s)
Visibility: 6 or more miles (10+ km)
Ceiling: ceiling and visibility are OK
Clouds: unknown
Weather: no significant weather observed at this time

METAR text: GCRR 260400Z AUTO 02014KT CAVOK 17/13 Q1023
Conditions at: GCRR (ARRECIFE/LANZARO, ES) observed 0400 UTC 26 February 2020
Temperature: 17.0°C (63°F)
Dewpoint: 13.0°C (55°F) [RH = 77%]
Pressure (altimeter): 30.21 inches Hg (1023.0 mb)
Winds: from the NNE (20 degrees) at 16 MPH (14 knots; 7.2 m/s)
Visibility: 6 or more miles (10+ km)
Ceiling: ceiling and visibility are OK
Clouds: unknown
Weather: no significant weather observed at this time

Forecast for: GCRR (ARRECIFE/LANZARO, ES)
Text: TAF GCRR 260200Z 2603/2703 01018KT 9999 FEW015 TX25/2614Z TN15/2606Z
Forecast period: 0300 UTC 26 February 2020 to 0300 UTC 27 February 2020
Forecast type: FROM: standard forecast or significant change
Winds: from the N (10 degrees) at 21 MPH (18 knots; 9.3 m/s)
Visibility: 6 or more miles 10+ km)
Ceiling: at least 12,000 feet AGL
Clouds: few clouds at 1500 feet AGL
Weather: no significant weather forecast for this period

 AIRPORT MAP

 RUNWAY INFORMATION
Runway 03 Runway length 7874 ft Runway width 148 ft
Runway elevation 18 ft Runway displaced threshold 0 ft Runway heading 27
Runway 21 Runway length 7874 ft Runway width 148 ft
Runway elevation 47 ft Runway displaced threshold 0 ft Runway heading 207

 AIRPORT FREQUENCIES
Type APP Name CANARIAS A Frequency 129.3 MHZ
Type ATIS Name ATIS Frequency 118.625 MHZ
Type GND Name GND Frequency 121.8 MHZ
Type TWR Name TWR Frequency 120.7 MHZ

 AIRPORT NEAR NAVIGATION AIDS
Type VOR-DME Name Lanzarote Frequency 113700 KHZ
Type NDB Name Lanzarote Frequency 310 KHZ
Type VOR-DME Name Lanzarote Frequency 115200 KHZ
Type TACAN Name Lanzarote Frequency 114700 KHZ



Powered by Virtual Airlines Manager [v2.6.2]